Terminal Aerodrome Forecast
Issued by NWS Atlanta, GA

Current Version | Previous Version | Text Only | Print | Product List | Glossary On
Versions: 1 2 3 4 5 6 7 8 9 10 11 12 13 14
301
FTUS42 KFFC 090523
TAFCSG
TAF
KCSG 090523Z 0906/1006 30008G16KT P6SM SCT060 BKN100
     FM091000 28011G20KT P6SM SCT035 BKN050
     FM091500 30012G22KT P6SM BKN035
     FM100200 30010KT P6SM SCT040 BKN100=

USA.gov is the U.S. government's official web portal to all federal, state and local government web resources and services.